createdAt,value
2018-05-26T00:02:16.873Z,64.80
2018-05-26T00:04:46.469Z,64.80
2018-05-26T00:07:17.967Z,65.40
2018-05-26T00:09:47.603Z,64.70
2018-05-26T00:12:17.267Z,65.00
2018-05-26T00:14:47.582Z,65.00
2018-05-26T00:17:18.439Z,65.00
2018-05-26T00:19:48.851Z,64.90
2018-05-26T00:22:18.354Z,64.90
2018-05-26T00:24:48.187Z,64.90
2018-05-26T00:27:17.936Z,64.70
2018-05-26T00:29:47.387Z,64.80
2018-05-26T00:32:17.722Z,64.70
2018-05-26T00:34:48.375Z,64.60
2018-05-26T00:37:19.308Z,64.70
2018-05-26T00:39:49.156Z,64.60
2018-05-26T00:42:18.982Z,64.60
2018-05-26T00:44:50.473Z,64.50
2018-05-26T00:47:20.663Z,64.40
2018-05-26T00:49:50.732Z,64.30
2018-05-26T00:52:20.629Z,64.20
2018-05-26T00:54:50.638Z,64.20
2018-05-26T00:57:20.854Z,64.30
2018-05-26T00:59:50.321Z,65.10
2018-05-26T01:02:20.885Z,64.30
2018-05-26T01:04:52.428Z,64.20
2018-05-26T01:07:22.340Z,64.20
2018-05-26T01:09:57.280Z,64.20
2018-05-26T01:12:27.321Z,64.20
2018-05-26T01:14:57.254Z,63.70
2018-05-26T01:17:26.780Z,63.50
2018-05-26T01:19:56.291Z,63.30
2018-05-26T01:22:26.355Z,63.50
2018-05-26T01:24:56.327Z,63.60
2018-05-26T01:27:26.438Z,63.70
2018-05-26T01:29:56.398Z,63.70
2018-05-26T01:32:26.621Z,63.20
2018-05-26T01:34:56.725Z,63.20
2018-05-26T01:37:27.065Z,63.30
2018-05-26T01:39:57.093Z,63.20
2018-05-26T01:42:27.717Z,63.30
2018-05-26T02:30:00.360Z,72.10
2018-05-26T02:32:30.796Z,74.10
2018-05-26T02:35:00.413Z,74.10
2018-05-26T02:37:30.731Z,74.10
2018-05-26T02:40:00.842Z,73.60
2018-05-26T02:42:30.476Z,72.00
2018-05-26T02:45:00.488Z,69.80
2018-05-26T02:47:29.998Z,68.30
2018-05-26T02:49:59.712Z,66.20
2018-05-26T02:52:31.211Z,65.00
2018-05-26T02:55:00.871Z,65.40
2018-05-26T02:57:31.212Z,65.70
2018-05-26T03:00:01.636Z,64.80
2018-05-26T03:02:31.364Z,64.20
2018-05-26T03:05:00.923Z,63.80
2018-05-26T03:07:30.771Z,62.40
2018-05-26T03:10:03.591Z,61.00
2018-05-26T03:12:33.498Z,60.90
2018-05-26T03:15:03.214Z,60.00
2018-05-26T03:17:33.631Z,59.50
2018-05-26T03:20:04.462Z,59.20
2018-05-26T03:22:34.167Z,58.40
2018-05-26T03:25:05.027Z,57.00
2018-05-26T03:27:34.960Z,56.80
2018-05-26T03:30:07.713Z,56.50
2018-05-26T03:32:37.645Z,56.20
2018-05-26T03:35:07.856Z,55.60
2018-05-26T03:37:38.290Z,55.20
2018-05-26T03:40:10.661Z,55.80
2018-05-26T03:42:40.258Z,55.00
2018-05-26T03:45:10.363Z,54.90
2018-05-26T03:47:40.313Z,54.80
2018-05-26T03:50:12.072Z,54.70
2018-05-26T03:52:41.575Z,54.60
2018-05-26T03:55:12.112Z,54.10
2018-05-26T03:57:42.538Z,54.90
2018-05-26T04:00:12.953Z,54.30
2018-05-26T04:02:43.811Z,54.50
2018-05-26T04:05:14.155Z,55.10
2018-05-26T04:07:44.270Z,55.10
2018-05-26T04:10:13.773Z,55.50
2018-05-26T04:12:43.279Z,55.60
2018-05-26T04:15:13.405Z,55.30
2018-05-26T04:17:43.422Z,54.90
2018-05-26T04:20:13.849Z,54.10
2018-05-26T04:22:43.701Z,54.00
2018-05-26T04:25:13.278Z,54.20
2018-05-26T04:27:43.796Z,54.20
2018-05-26T04:30:13.524Z,54.30
2018-05-26T04:32:43.748Z,54.90
2018-05-26T04:35:13.476Z,54.20
2018-05-26T04:37:43.384Z,54.30
2018-05-26T04:40:12.890Z,54.30
2018-05-26T04:42:47.513Z,55.00
2018-05-26T04:45:17.433Z,54.90
2018-05-26T04:47:47.730Z,55.30
2018-05-26T04:50:17.260Z,55.30
2018-05-26T04:52:48.041Z,55.80
2018-05-26T04:55:17.618Z,55.80
2018-05-26T04:57:47.430Z,56.20
2018-05-26T05:00:17.212Z,56.50
2018-05-26T05:02:46.847Z,56.70
2018-05-26T05:05:17.211Z,57.40
2018-05-26T05:07:48.018Z,57.90
2018-05-26T05:10:18.429Z,58.60
2018-05-26T05:12:48.165Z,58.10
2018-05-26T05:15:17.880Z,58.10
2018-05-26T05:17:47.408Z,58.30
2018-05-26T05:20:17.307Z,58.70
2018-05-26T05:22:47.124Z,58.80
2018-05-26T05:25:17.664Z,59.30
2018-05-26T05:27:47.968Z,59.30
2018-05-26T05:30:18.414Z,59.40
2018-05-26T05:32:48.000Z,59.30
2018-05-26T05:35:18.615Z,58.30
2018-05-26T05:37:48.570Z,58.30
2018-05-26T05:40:18.298Z,58.00
2018-05-26T05:42:49.532Z,57.90
2018-05-26T05:45:19.762Z,57.10
2018-05-26T05:47:50.739Z,56.80
2018-05-26T05:50:21.349Z,57.40
2018-05-26T05:52:51.173Z,56.50
2018-05-26T05:55:20.744Z,56.30
2018-05-26T05:57:51.812Z,56.40
2018-05-26T06:00:22.033Z,56.60
2018-05-26T06:02:52.670Z,57.00
2018-05-26T06:05:22.779Z,56.70
2018-05-26T06:07:52.613Z,56.90
2018-05-26T06:10:23.209Z,57.10
2018-05-26T06:12:52.729Z,57.10
2018-05-26T06:15:22.420Z,57.00
2018-05-26T06:17:52.273Z,57.40
2018-05-26T06:20:22.691Z,57.50
2018-05-26T06:22:53.645Z,57.50
2018-05-26T06:25:25.307Z,58.10
2018-05-26T06:27:56.245Z,57.70
2018-05-26T06:30:26.678Z,57.90
2018-05-26T06:32:56.395Z,57.90
2018-05-26T06:35:26.622Z,58.10
2018-05-26T06:37:56.432Z,58.20
2018-05-26T06:40:26.659Z,57.70
2018-05-26T06:42:56.680Z,57.70
2018-05-26T06:45:26.396Z,57.10
2018-05-26T06:47:56.004Z,56.40
2018-05-26T06:50:25.949Z,56.90
2018-05-26T06:52:55.636Z,57.30
2018-05-26T06:55:26.070Z,57.30
2018-05-26T06:57:56.382Z,57.30
2018-05-26T07:00:26.728Z,57.60
2018-05-26T07:02:56.434Z,57.40
2018-05-26T07:05:26.968Z,57.10
2018-05-26T07:07:56.776Z,57.10
2018-05-26T07:10:26.496Z,56.90
2018-05-26T07:12:57.433Z,57.20
2018-05-26T07:15:27.900Z,56.90
2018-05-26T07:17:57.571Z,56.90
2018-05-26T07:20:28.304Z,56.70
2018-05-26T07:22:58.562Z,56.50
2018-05-26T07:25:28.120Z,56.50
2018-05-26T07:27:57.970Z,56.30
2018-05-26T07:30:27.476Z,56.50
2018-05-26T07:32:57.882Z,56.20
2018-05-26T07:35:28.747Z,56.90
2018-05-26T07:37:59.380Z,56.20
2018-05-26T07:40:30.318Z,56.10
2018-05-26T07:42:59.806Z,56.80
2018-05-26T07:45:30.980Z,56.70
2018-05-26T07:48:00.967Z,56.10
2018-05-26T07:50:31.429Z,55.20
2018-05-26T07:53:01.961Z,55.00
2018-05-26T07:55:32.080Z,54.90
2018-05-26T07:58:01.693Z,55.20
2018-05-26T08:00:31.272Z,54.70
2018-05-26T08:03:02.237Z,54.60
2018-05-26T08:05:31.751Z,54.50
2018-05-26T08:08:02.184Z,53.90
2018-05-26T08:10:33.116Z,53.70
2018-05-26T08:13:03.457Z,52.90
2018-05-26T08:15:35.720Z,52.80
2018-05-26T08:18:06.461Z,51.90
2018-05-26T08:20:36.997Z,52.00
2018-05-26T08:23:06.605Z,51.90
2018-05-26T08:25:36.830Z,51.90
2018-05-26T08:28:06.411Z,52.60
2018-05-26T08:30:36.850Z,51.20
2018-05-26T08:33:07.717Z,51.00
2018-05-26T08:35:37.301Z,50.90
2018-05-26T08:38:07.148Z,51.10
2018-05-26T08:40:37.444Z,51.00
2018-05-26T08:43:06.870Z,51.00
2018-05-26T08:45:37.095Z,51.00
2018-05-26T08:48:08.745Z,50.90
2018-05-26T08:50:38.221Z,51.20
2018-05-26T08:53:07.597Z,51.50
2018-05-26T08:55:37.764Z,51.90
2018-05-26T08:58:07.403Z,52.10
2018-05-26T09:00:37.033Z,52.30
2018-05-26T09:03:06.829Z,52.40
2018-05-26T09:05:36.416Z,52.50
2018-05-26T09:08:06.020Z,52.50
2018-05-26T09:10:36.888Z,52.90
2018-05-26T09:13:07.219Z,53.30
2018-05-26T09:15:37.754Z,54.30
2018-05-26T09:18:07.769Z,53.70
2018-05-26T09:20:38.201Z,54.30
2018-05-26T09:23:08.345Z,54.20
2018-05-26T09:25:37.823Z,54.50
2018-05-26T09:28:08.478Z,55.20
2018-05-26T09:30:40.003Z,55.10
2018-05-26T09:33:10.449Z,55.10
2018-05-26T09:35:41.391Z,55.10
2018-05-26T09:38:11.827Z,55.10
2018-05-26T09:40:41.746Z,55.10
2018-05-26T09:43:11.677Z,54.70
2018-05-26T09:45:41.373Z,54.90
2018-05-26T09:48:12.932Z,55.90
2018-05-26T09:50:43.460Z,55.30
2018-05-26T09:53:13.875Z,55.40
2018-05-26T09:55:44.825Z,55.90
2018-05-26T09:58:14.644Z,55.90
2018-05-26T10:00:44.120Z,56.00
2018-05-26T10:03:14.883Z,56.30
2018-05-26T10:05:44.698Z,56.30
2018-05-26T10:08:14.488Z,56.20
2018-05-26T10:10:44.708Z,56.40
2018-05-26T10:13:15.372Z,56.10
2018-05-26T10:15:45.920Z,56.90
2018-05-26T10:18:15.402Z,56.10
2018-05-26T10:20:46.224Z,56.50
2018-05-26T10:23:16.793Z,57.10
2018-05-26T10:25:46.882Z,56.70
2018-05-26T10:28:17.858Z,56.70
2018-05-26T10:30:47.356Z,56.60
2018-05-26T10:33:18.081Z,57.00
2018-05-26T10:35:47.584Z,57.00
2018-05-26T10:38:19.229Z,57.30
2018-05-26T10:40:48.861Z,57.20
2018-05-26T10:43:19.512Z,57.30
2018-05-26T10:45:50.146Z,57.40
2018-05-26T10:48:21.804Z,57.70
2018-05-26T10:50:51.926Z,57.60
2018-05-26T10:53:22.461Z,57.70
2018-05-26T10:55:53.097Z,57.40
2018-05-26T10:58:23.518Z,57.20
2018-05-26T11:00:54.560Z,57.10
2018-05-26T11:03:24.992Z,57.10
2018-05-26T11:05:55.862Z,57.00
2018-05-26T11:08:26.471Z,57.00
2018-05-26T11:10:59.850Z,57.60
2018-05-26T11:13:30.589Z,57.00
2018-05-26T11:16:00.211Z,56.90
2018-05-26T11:18:29.920Z,56.90
2018-05-26T11:21:00.767Z,57.30
2018-05-26T11:23:32.028Z,56.70
2018-05-26T11:26:02.791Z,56.70
2018-05-26T11:28:34.392Z,56.70
2018-05-26T11:31:08.279Z,56.70
2018-05-26T11:33:37.826Z,56.70
2018-05-26T11:36:08.148Z,57.10
2018-05-26T11:38:39.047Z,57.00
2018-05-26T11:41:08.724Z,57.00
2018-05-26T11:43:38.307Z,57.20
2018-05-26T11:46:09.047Z,57.40
2018-05-26T11:48:40.293Z,57.40
2018-05-26T11:51:10.896Z,57.40
2018-05-26T11:53:40.526Z,57.30
2018-05-26T11:56:10.768Z,58.00
2018-05-26T11:58:41.410Z,57.40
2018-05-26T12:01:12.859Z,57.50
2018-05-26T12:03:43.294Z,57.50
2018-05-26T12:06:13.291Z,57.40
2018-05-26T12:08:43.728Z,57.50
2018-05-26T12:11:15.194Z,57.50
2018-05-26T12:13:45.925Z,57.60
2018-05-26T12:16:16.361Z,57.70
2018-05-26T12:18:46.995Z,57.30
2018-05-26T12:21:16.763Z,57.60
2018-05-26T12:23:46.203Z,57.80
2018-05-26T12:26:15.821Z,57.80
2018-05-26T12:28:46.975Z,57.90
2018-05-26T12:31:17.406Z,58.00
2018-05-26T12:33:48.013Z,58.10
2018-05-26T12:36:17.654Z,58.00
2018-05-26T12:38:47.820Z,58.10
2018-05-26T12:41:17.371Z,58.20
2018-05-26T12:43:46.681Z,58.40
2018-05-26T12:46:17.417Z,58.50
2018-05-26T12:48:48.572Z,58.60
2018-05-26T12:51:18.759Z,58.70
2018-05-26T12:53:49.179Z,58.80
2018-05-26T12:56:18.623Z,58.70
2018-05-26T12:58:51.251Z,58.80
2018-05-26T13:01:29.466Z,58.70
2018-05-26T13:03:59.237Z,58.60
2018-05-26T13:06:28.948Z,58.60
2018-05-26T13:08:58.663Z,58.70
2018-05-26T13:11:29.169Z,58.80
2018-05-26T13:14:00.238Z,58.70
2018-05-26T13:16:29.924Z,58.70
2018-05-26T13:19:00.582Z,58.60
2018-05-26T13:21:30.811Z,58.50
2018-05-26T13:24:01.137Z,58.60
2018-05-26T13:26:30.637Z,58.50
2018-05-26T13:29:01.480Z,59.30
2018-05-26T13:31:31.938Z,58.50
2018-05-26T13:34:01.829Z,58.50
2018-05-26T13:36:32.564Z,58.50
2018-05-26T13:39:03.030Z,58.60
2018-05-26T13:41:33.402Z,58.60
2018-05-26T13:44:04.262Z,58.70
2018-05-26T13:46:33.981Z,58.60
2018-05-26T13:49:05.126Z,59.50
2018-05-26T13:51:36.065Z,58.80
2018-05-26T13:54:06.592Z,59.00
2018-05-26T13:56:37.544Z,59.00
2018-05-26T13:59:07.769Z,59.00
2018-05-26T14:01:37.270Z,59.20
2018-05-26T14:04:10.028Z,59.60
2018-05-26T14:06:39.561Z,59.60
2018-05-26T14:09:10.912Z,59.80
2018-05-26T14:11:42.011Z,59.80
2018-05-26T14:14:12.205Z,59.80
2018-05-26T14:16:41.901Z,60.00
2018-05-26T14:19:12.330Z,60.10
2018-05-26T14:21:42.783Z,60.30
2018-05-26T14:24:12.578Z,60.20
2018-05-26T14:26:43.613Z,60.40
2018-05-26T14:29:14.048Z,60.20
2018-05-26T14:31:44.376Z,60.20
2018-05-26T14:34:15.317Z,60.50
2018-05-26T14:36:45.130Z,60.70
2018-05-26T14:39:16.083Z,60.80
2018-05-26T14:41:45.558Z,60.70
2018-05-26T14:44:16.015Z,61.40
2018-05-26T14:46:46.056Z,61.40
2018-05-26T14:49:15.749Z,61.50
2018-05-26T14:51:45.343Z,61.70
2018-05-26T14:54:17.018Z,62.00
2018-05-26T14:56:47.855Z,61.90
2018-05-26T14:59:17.574Z,62.10
2018-05-26T15:01:47.590Z,62.00
2018-05-26T15:04:17.927Z,62.30
2018-05-26T15:06:48.651Z,62.30
2018-05-26T15:09:18.093Z,62.20
2018-05-26T15:11:47.880Z,62.40
2018-05-26T15:14:17.867Z,62.50
2018-05-26T15:16:47.402Z,62.50
2018-05-26T15:19:17.831Z,62.70
2018-05-26T15:21:49.063Z,62.70
2018-05-26T15:24:19.448Z,62.60
2018-05-26T15:26:48.955Z,62.60
2018-05-26T15:29:19.448Z,62.70
2018-05-26T15:31:49.979Z,62.90
2018-05-26T15:34:19.564Z,62.90
2018-05-26T15:36:49.455Z,63.00
2018-05-26T15:39:20.949Z,63.20
2018-05-26T15:41:51.389Z,63.20
2018-05-26T15:44:22.230Z,63.30
2018-05-26T15:46:52.773Z,63.10
2018-05-26T15:49:22.370Z,63.00
2018-05-26T15:51:52.195Z,63.20
2018-05-26T15:54:23.386Z,63.40
2018-05-26T15:56:53.675Z,63.30
2018-05-26T15:59:23.248Z,63.50
2018-05-26T16:01:53.468Z,64.20
2018-05-26T16:04:24.546Z,64.30
2018-05-26T16:06:54.366Z,63.70
2018-05-26T16:09:24.996Z,63.90
2018-05-26T16:11:54.942Z,63.80
2018-05-26T16:14:24.840Z,63.90
2018-05-26T16:16:54.423Z,63.60
2018-05-26T16:19:24.924Z,64.10
2018-05-26T16:21:55.411Z,64.00
2018-05-26T16:24:25.227Z,63.90
2018-05-26T16:26:55.445Z,64.10
2018-05-26T16:29:25.183Z,64.10
2018-05-26T16:31:56.317Z,64.20
2018-05-26T16:34:28.046Z,64.40
2018-05-26T16:36:58.589Z,64.30
2018-05-26T16:39:29.517Z,64.40
2018-05-26T16:41:59.145Z,64.40
2018-05-26T16:44:28.845Z,64.40
2018-05-26T16:46:59.490Z,65.50
2018-05-26T16:49:29.100Z,64.60
2018-05-26T16:52:00.282Z,64.80
2018-05-26T16:54:30.075Z,64.70
2018-05-26T16:57:00.913Z,64.60
2018-05-26T16:59:30.411Z,64.70
2018-05-26T17:01:59.940Z,64.70
2018-05-26T17:04:29.845Z,64.90
2018-05-26T17:07:01.168Z,65.00
2018-05-26T17:09:32.116Z,65.30
2018-05-26T17:12:02.574Z,65.10
2018-05-26T17:14:32.891Z,65.00
2018-05-26T17:17:02.496Z,65.00
2018-05-26T17:19:32.833Z,65.00
2018-05-26T17:22:02.825Z,65.00
2018-05-26T17:24:33.283Z,65.90
2018-05-26T17:27:03.818Z,65.30
2018-05-26T17:29:34.440Z,64.80
2018-05-26T17:32:04.061Z,65.30
2018-05-26T17:34:35.083Z,65.60
2018-05-26T17:37:06.660Z,65.50
2018-05-26T17:39:37.207Z,65.70
2018-05-26T17:42:06.698Z,65.60
2018-05-26T17:44:37.743Z,65.60
2018-05-26T17:47:08.058Z,65.80
2018-05-26T17:49:38.802Z,65.90
2018-05-26T17:52:09.438Z,65.80
2018-05-26T17:54:39.259Z,66.00
2018-05-26T17:57:11.018Z,66.20
2018-05-26T17:59:41.552Z,66.10
2018-05-26T18:02:11.238Z,66.00
2018-05-26T18:04:41.896Z,66.20
2018-05-26T18:07:12.628Z,66.10
2018-05-26T18:09:43.244Z,66.20
2018-05-26T18:12:12.756Z,66.20
2018-05-26T18:14:42.154Z,66.10
2018-05-26T18:17:12.410Z,66.20
2018-05-26T18:19:42.217Z,66.40
2018-05-26T18:22:13.262Z,66.50
2018-05-26T18:24:43.486Z,66.70
2018-05-26T18:27:13.820Z,66.90
2018-05-26T18:29:44.728Z,66.70
2018-05-26T18:32:15.062Z,66.80
2018-05-26T18:34:45.383Z,66.90
2018-05-26T18:37:15.717Z,66.90
2018-05-26T18:39:45.355Z,66.90
2018-05-26T18:42:17.911Z,67.00
2018-05-26T18:44:47.836Z,66.90
2018-05-26T18:47:17.252Z,67.00
2018-05-26T18:49:47.693Z,67.10
2018-05-26T18:52:17.509Z,67.10
2018-05-26T18:54:47.080Z,67.10
2018-05-26T18:57:18.440Z,67.20
2018-05-26T18:59:48.479Z,67.20
2018-05-26T19:02:19.154Z,67.40
2018-05-26T19:04:49.948Z,67.30
2018-05-26T19:07:19.672Z,67.30
2018-05-26T19:09:50.406Z,67.90
2018-05-26T19:12:21.040Z,67.50
2018-05-26T19:14:50.750Z,67.30
2018-05-26T19:17:21.703Z,67.60
2018-05-26T19:19:51.549Z,67.40
2018-05-26T19:22:21.122Z,67.40
2018-05-26T19:24:52.374Z,67.70
2018-05-26T19:27:22.994Z,67.80
2018-05-26T19:29:53.540Z,68.50
2018-05-26T19:32:23.870Z,67.60
2018-05-26T19:34:54.396Z,67.70
2018-05-26T19:37:24.931Z,67.80
2018-05-26T19:39:55.640Z,67.90
2018-05-26T19:42:25.997Z,67.80
2018-05-26T19:44:56.631Z,68.60
2018-05-26T19:47:27.368Z,67.80
2018-05-26T19:49:56.982Z,67.60
2018-05-26T19:52:26.485Z,67.70
2018-05-26T19:54:57.226Z,68.10
2018-05-26T19:57:27.448Z,67.60
2018-05-26T19:59:57.233Z,67.80
2018-05-26T20:02:27.802Z,67.80
2018-05-26T20:04:57.410Z,67.80
2018-05-26T20:07:27.226Z,67.80
2018-05-26T20:09:57.754Z,67.90
2018-05-26T20:12:28.015Z,67.90
2018-05-26T20:14:57.900Z,67.80
2018-05-26T20:17:27.408Z,67.90
2018-05-26T20:19:57.933Z,68.80
2018-05-26T20:22:28.881Z,68.20
2018-05-26T20:24:59.283Z,68.80
2018-05-26T20:27:28.920Z,68.00
2018-05-26T20:29:58.636Z,68.10
2018-05-26T20:32:28.722Z,69.00
2018-05-26T20:34:58.576Z,68.10
2018-05-26T20:37:29.113Z,68.70
2018-05-26T20:39:59.228Z,68.10
2018-05-26T20:42:29.441Z,68.50
2018-05-26T20:44:59.677Z,68.60
2018-05-26T20:47:31.551Z,68.50
2018-05-26T20:50:01.356Z,68.50
2018-05-26T20:52:31.384Z,68.70
2018-05-26T20:55:01.604Z,68.60
2018-05-26T20:57:32.338Z,68.80
2018-05-26T21:00:01.813Z,68.80
2018-05-26T21:02:32.894Z,69.40
2018-05-26T21:05:02.704Z,69.30
2018-05-26T21:07:32.292Z,69.40
2018-05-26T21:10:02.443Z,69.60
2018-05-26T21:12:33.076Z,69.50
2018-05-26T21:15:03.927Z,69.70
2018-05-26T21:17:33.630Z,69.70
2018-05-26T21:20:04.368Z,70.00
2018-05-26T21:22:35.279Z,70.00
2018-05-26T21:25:05.858Z,70.10
2018-05-26T21:27:35.570Z,69.90
2018-05-26T21:30:06.056Z,70.00
2018-05-26T21:32:35.595Z,69.90
2018-05-26T21:35:06.023Z,70.00
2018-05-26T21:37:36.345Z,70.00
2018-05-26T21:40:06.272Z,70.00
2018-05-26T21:42:36.687Z,70.10
2018-05-26T21:45:07.307Z,70.10
2018-05-26T21:47:37.034Z,70.10
2018-05-26T21:50:07.678Z,70.10
2018-05-26T21:52:38.309Z,70.10
2018-05-26T21:55:08.628Z,70.00
2018-05-26T21:57:39.584Z,70.10
2018-05-26T22:00:09.778Z,70.00
2018-05-26T22:02:39.517Z,70.00
2018-05-26T22:05:09.237Z,70.10
2018-05-26T22:07:39.135Z,70.00
2018-05-26T22:10:09.453Z,70.00
2018-05-26T22:12:40.236Z,69.90
2018-05-26T22:15:10.644Z,69.90
2018-05-26T22:17:41.185Z,70.00
2018-05-26T22:20:11.093Z,69.90
2018-05-26T22:22:41.285Z,70.00
2018-05-26T22:25:11.751Z,69.90
2018-05-26T22:27:42.378Z,69.90
2018-05-26T22:30:11.994Z,69.90
2018-05-26T22:32:41.908Z,70.00
2018-05-26T22:35:11.525Z,70.10
2018-05-26T22:37:41.853Z,70.10
2018-05-26T22:40:12.244Z,70.20
2018-05-26T22:42:42.814Z,70.30
2018-05-26T22:45:12.636Z,70.30
2018-05-26T22:47:42.892Z,71.00
2018-05-26T22:50:13.775Z,71.50
2018-05-26T22:52:44.333Z,71.00
2018-05-26T22:55:13.838Z,70.90
2018-05-26T22:57:45.193Z,71.10
2018-05-26T23:00:15.718Z,71.00
2018-05-26T23:02:45.412Z,71.00
2018-05-26T23:05:16.375Z,71.10
2018-05-26T23:07:46.697Z,71.20
2018-05-26T23:10:17.237Z,71.20
2018-05-26T23:12:47.254Z,71.10
2018-05-26T23:15:17.795Z,72.40
2018-05-26T23:17:47.363Z,71.30
2018-05-26T23:20:17.287Z,71.40
2018-05-26T23:22:46.834Z,71.40
2018-05-26T23:25:16.430Z,71.30
2018-05-26T23:27:46.961Z,71.40
2018-05-26T23:30:17.380Z,71.50
2018-05-26T23:32:47.728Z,71.00
2018-05-26T23:35:17.671Z,71.50
2018-05-26T23:37:47.336Z,71.60
2018-05-26T23:40:17.581Z,71.70
2018-05-26T23:42:48.310Z,72.00
2018-05-26T23:45:18.645Z,71.90
2018-05-26T23:47:49.896Z,71.90
2018-05-26T23:50:21.649Z,71.70
2018-05-26T23:52:51.687Z,71.60
2018-05-26T23:55:21.798Z,70.70
2018-05-26T23:57:52.125Z,71.20
